sensor_id;sensor_type;location;lat;lon;timestamp;pressure;altitude;pressure_sealevel;temperature;humidity
42451;BME280;28080;51.138;17.170;2024-02-21T00:07:54;100735.46;;;5.67;97.01
42451;BME280;28080;51.138;17.170;2024-02-21T00:18:19;100733.62;;;5.66;97.07
42451;BME280;28080;51.138;17.170;2024-02-21T00:29:06;100728.55;;;5.67;97.16
42451;BME280;28080;51.138;17.170;2024-02-21T00:39:32;100724.31;;;5.69;96.83
42451;BME280;28080;51.138;17.170;2024-02-21T00:50:02;100713.48;;;5.71;96.64
42451;BME280;28080;51.138;17.170;2024-02-21T01:00:17;100706.31;;;5.73;96.37
42451;BME280;28080;51.138;17.170;2024-02-21T01:10:41;100690.84;;;5.74;96.22
42451;BME280;28080;51.138;17.170;2024-02-21T01:21:08;100684.77;;;5.73;96.04
42451;BME280;28080;51.138;17.170;2024-02-21T01:31:33;100674.94;;;5.72;95.94
42451;BME280;28080;51.138;17.170;2024-02-21T01:41:59;100669.35;;;5.72;96.19
42451;BME280;28080;51.138;17.170;2024-02-21T01:52:25;100661.48;;;5.74;96.97
42451;BME280;28080;51.138;17.170;2024-02-21T02:02:51;100649.02;;;5.74;98.68
42451;BME280;28080;51.138;17.170;2024-02-21T02:13:26;100639.70;;;5.72;99.61
42451;BME280;28080;51.138;17.170;2024-02-21T02:23:52;100620.36;;;5.74;99.80
42451;BME280;28080;51.138;17.170;2024-02-21T02:34:15;100611.05;;;5.77;99.72
42451;BME280;28080;51.138;17.170;2024-02-21T02:44:34;100605.77;;;5.79;99.62
42451;BME280;28080;51.138;17.170;2024-02-21T02:55:00;100599.95;;;5.77;99.62
42451;BME280;28080;51.138;17.170;2024-02-21T03:05:23;100592.00;;;5.76;99.40
42451;BME280;28080;51.138;17.170;2024-02-21T03:15:48;100586.80;;;5.76;98.95
42451;BME280;28080;51.138;17.170;2024-02-21T03:26:14;100582.42;;;5.72;98.76
42451;BME280;28080;51.138;17.170;2024-02-21T03:36:34;100573.94;;;5.67;98.67
42451;BME280;28080;51.138;17.170;2024-02-21T03:46:59;100568.47;;;5.64;98.44
42451;BME280;28080;51.138;17.170;2024-02-21T03:57:24;100559.59;;;5.65;98.58
42451;BME280;28080;51.138;17.170;2024-02-21T04:07:50;100559.94;;;5.65;98.36
42451;BME280;28080;51.138;17.170;2024-02-21T04:18:15;100552.66;;;5.65;98.25
42451;BME280;28080;51.138;17.170;2024-02-21T04:28:34;100537.97;;;5.64;98.19
42451;BME280;28080;51.138;17.170;2024-02-21T04:38:59;100527.99;;;5.61;98.03
42451;BME280;28080;51.138;17.170;2024-02-21T04:49:24;100520.26;;;5.59;97.77
42451;BME280;28080;51.138;17.170;2024-02-21T04:59:46;100518.98;;;5.56;97.59
42451;BME280;28080;51.138;17.170;2024-02-21T05:10:12;100507.31;;;5.53;97.63
42451;BME280;28080;51.138;17.170;2024-02-21T05:20:38;100499.45;;;5.50;97.54
42451;BME280;28080;51.138;17.170;2024-02-21T05:31:04;100495.38;;;5.48;97.57
42451;BME280;28080;51.138;17.170;2024-02-21T05:41:30;100493.39;;;5.44;97.44
42451;BME280;28080;51.138;17.170;2024-02-21T05:52:16;100484.87;;;5.45;97.55
42451;BME280;28080;51.138;17.170;2024-02-21T06:02:49;100477.92;;;5.45;97.50
42451;BME280;28080;51.138;17.170;2024-02-21T06:13:18;100480.14;;;5.46;97.43
42451;BME280;28080;51.138;17.170;2024-02-21T06:23:31;100479.06;;;5.47;97.16
42451;BME280;28080;51.138;17.170;2024-02-21T06:33:48;100477.81;;;5.48;97.15
42451;BME280;28080;51.138;17.170;2024-02-21T06:44:05;100470.74;;;5.52;97.29
42451;BME280;28080;51.138;17.170;2024-02-21T06:54:18;100469.09;;;5.54;97.01
42451;BME280;28080;51.138;17.170;2024-02-21T07:04:42;100471.27;;;5.57;96.88
42451;BME280;28080;51.138;17.170;2024-02-21T07:15:08;100464.84;;;5.61;96.92
42451;BME280;28080;51.138;17.170;2024-02-21T07:25:26;100463.77;;;5.66;96.78
42451;BME280;28080;51.138;17.170;2024-02-21T07:35:43;100460.52;;;5.74;96.94
42451;BME280;28080;51.138;17.170;2024-02-21T07:45:57;100453.98;;;5.81;97.48
42451;BME280;28080;51.138;17.170;2024-02-21T07:56:10;100450.81;;;5.87;98.13
42451;BME280;28080;51.138;17.170;2024-02-21T08:06:35;100446.02;;;5.94;99.04
42451;BME280;28080;51.138;17.170;2024-02-21T08:17:00;100431.80;;;6.04;99.95
42451;BME280;28080;51.138;17.170;2024-02-21T08:27:27;100425.69;;;6.13;100.00
42451;BME280;28080;51.138;17.170;2024-02-21T08:37:52;100416.61;;;6.22;100.00
42451;BME280;28080;51.138;17.170;2024-02-21T08:48:18;100415.89;;;6.31;100.00
42451;BME280;28080;51.138;17.170;2024-02-21T08:58:43;100410.50;;;6.40;100.00
42451;BME280;28080;51.138;17.170;2024-02-21T09:09:08;100408.52;;;6.49;100.00
42451;BME280;28080;51.138;17.170;2024-02-21T09:19:28;100406.81;;;6.61;100.00
42451;BME280;28080;51.138;17.170;2024-02-21T09:29:53;100398.95;;;6.70;100.00
42451;BME280;28080;51.138;17.170;2024-02-21T09:40:17;100394.64;;;6.77;100.00
42451;BME280;28080;51.138;17.170;2024-02-21T09:50:45;100395.91;;;6.84;100.00
42451;BME280;28080;51.138;17.170;2024-02-21T10:01:11;100391.96;;;6.94;100.00
42451;BME280;28080;51.138;17.170;2024-02-21T10:11:37;100387.52;;;7.04;100.00
42451;BME280;28080;51.138;17.170;2024-02-21T10:22:04;100383.89;;;7.08;100.00
42451;BME280;28080;51.138;17.170;2024-02-21T10:32:31;100385.73;;;7.09;100.00
42451;BME280;28080;51.138;17.170;2024-02-21T10:42:49;100384.48;;;7.10;100.00
42451;BME280;28080;51.138;17.170;2024-02-21T10:53:24;100380.76;;;7.11;99.64
42451;BME280;28080;51.138;17.170;2024-02-21T11:03:55;100357.16;;;7.14;99.18
42451;BME280;28080;51.138;17.170;2024-02-21T11:14:21;100336.83;;;7.17;99.01
42451;BME280;28080;51.138;17.170;2024-02-21T11:24:47;100332.16;;;7.20;98.61
42451;BME280;28080;51.138;17.170;2024-02-21T11:35:21;100325.23;;;7.23;98.33
42451;BME280;28080;51.138;17.170;2024-02-21T11:45:47;100301.56;;;7.28;98.42
42451;BME280;28080;51.138;17.170;2024-02-21T11:56:13;100290.12;;;7.38;98.64
42451;BME280;28080;51.138;17.170;2024-02-21T12:06:40;100282.80;;;7.45;97.87
42451;BME280;28080;51.138;17.170;2024-02-21T12:17:05;100273.85;;;7.50;97.54
42451;BME280;28080;51.138;17.170;2024-02-21T12:27:31;100255.15;;;7.58;97.24
42451;BME280;28080;51.138;17.170;2024-02-21T12:37:57;100239.55;;;7.68;97.08
42451;BME280;28080;51.138;17.170;2024-02-21T12:48:23;100220.92;;;7.78;97.03
42451;BME280;28080;51.138;17.170;2024-02-21T12:58:49;100191.92;;;7.87;96.48
42451;BME280;28080;51.138;17.170;2024-02-21T13:09:11;100180.41;;;7.94;96.08
42451;BME280;28080;51.138;17.170;2024-02-21T13:19:37;100172.53;;;8.01;95.62
42451;BME280;28080;51.138;17.170;2024-02-21T13:30:02;100165.15;;;8.05;94.73
42451;BME280;28080;51.138;17.170;2024-02-21T13:40:30;100150.54;;;8.12;93.76
42451;BME280;28080;51.138;17.170;2024-02-21T13:50:55;100137.30;;;8.18;91.37
42451;BME280;28080;51.138;17.170;2024-02-21T14:01:20;100125.42;;;8.22;88.70
42451;BME280;28080;51.138;17.170;2024-02-21T14:11:46;100110.73;;;8.26;88.58
42451;BME280;28080;51.138;17.170;2024-02-21T14:22:11;100098.21;;;8.32;88.35
42451;BME280;28080;51.138;17.170;2024-02-21T14:32:38;100092.21;;;8.37;87.69
42451;BME280;28080;51.138;17.170;2024-02-21T14:43:03;100088.55;;;8.41;86.84
42451;BME280;28080;51.138;17.170;2024-02-21T14:53:28;100078.98;;;8.43;86.60
42451;BME280;28080;51.138;17.170;2024-02-21T15:03:48;100070.31;;;8.46;86.15
42451;BME280;28080;51.138;17.170;2024-02-21T15:14:13;100068.10;;;8.48;85.84
42451;BME280;28080;51.138;17.170;2024-02-21T15:24:38;100062.27;;;8.49;86.08
42451;BME280;28080;51.138;17.170;2024-02-21T15:35:05;100052.87;;;8.49;85.99
42451;BME280;28080;51.138;17.170;2024-02-21T15:45:31;100035.02;;;8.47;86.38
42451;BME280;28080;51.138;17.170;2024-02-21T15:55:56;100029.70;;;8.46;86.33
42451;BME280;28080;51.138;17.170;2024-02-21T16:06:21;100024.59;;;8.40;86.19
42451;BME280;28080;51.138;17.170;2024-02-21T16:16:47;100014.02;;;8.36;86.55
42451;BME280;28080;51.138;17.170;2024-02-21T16:27:13;100014.20;;;8.30;86.97
42451;BME280;28080;51.138;17.170;2024-02-21T16:37:39;100022.93;;;8.23;86.81
42451;BME280;28080;51.138;17.170;2024-02-21T16:48:06;100018.54;;;8.18;86.54
42451;BME280;28080;51.138;17.170;2024-02-21T16:58:33;100014.73;;;8.14;86.80
42451;BME280;28080;51.138;17.170;2024-02-21T17:09:01;100002.27;;;8.10;86.66
42451;BME280;28080;51.138;17.170;2024-02-21T17:19:28;99988.15;;;8.04;86.36
42451;BME280;28080;51.138;17.170;2024-02-21T17:29:55;99977.77;;;7.93;86.02
42451;BME280;28080;51.138;17.170;2024-02-21T17:40:20;99962.98;;;7.80;86.05
42451;BME280;28080;51.138;17.170;2024-02-21T17:50:47;99946.68;;;7.66;86.48
42451;BME280;28080;51.138;17.170;2024-02-21T18:01:13;99933.55;;;7.52;86.67
42451;BME280;28080;51.138;17.170;2024-02-21T18:11:59;99922.96;;;7.36;86.72
42451;BME280;28080;51.138;17.170;2024-02-21T18:22:25;99907.23;;;7.14;87.09
42451;BME280;28080;51.138;17.170;2024-02-21T18:33:11;99890.98;;;6.99;87.48
42451;BME280;28080;51.138;17.170;2024-02-21T18:43:37;99877.84;;;6.81;87.55
42451;BME280;28080;51.138;17.170;2024-02-21T18:54:03;99874.43;;;6.60;88.09
42451;BME280;28080;51.138;17.170;2024-02-21T19:04:34;99868.20;;;6.46;88.38
42451;BME280;28080;51.138;17.170;2024-02-21T19:14:50;99857.79;;;6.36;88.43
42451;BME280;28080;51.138;17.170;2024-02-21T19:25:16;99846.38;;;6.21;88.63
42451;BME280;28080;51.138;17.170;2024-02-21T19:35:44;99833.27;;;6.05;88.86
42451;BME280;28080;51.138;17.170;2024-02-21T19:46:10;99817.66;;;5.91;89.01
42451;BME280;28080;51.138;17.170;2024-02-21T19:56:36;99812.44;;;5.77;89.26
42451;BME280;28080;51.138;17.170;2024-02-21T20:07:02;99804.23;;;5.63;89.54
42451;BME280;28080;51.138;17.170;2024-02-21T20:17:28;99780.91;;;5.55;89.71
42451;BME280;28080;51.138;17.170;2024-02-21T20:27:53;99760.48;;;5.43;89.98
42451;BME280;28080;51.138;17.170;2024-02-21T20:38:19;99741.60;;;5.28;90.35
42451;BME280;28080;51.138;17.170;2024-02-21T20:48:44;99719.20;;;5.15;90.89
42451;BME280;28080;51.138;17.170;2024-02-21T20:59:10;99704.15;;;5.04;91.74
42451;BME280;28080;51.138;17.170;2024-02-21T21:09:49;99678.66;;;4.97;92.83
42451;BME280;28080;51.138;17.170;2024-02-21T21:20:18;99660.77;;;4.94;93.36
42451;BME280;28080;51.138;17.170;2024-02-21T21:30:52;99639.47;;;4.87;93.31
42451;BME280;28080;51.138;17.170;2024-02-21T21:41:18;99616.90;;;4.80;93.24
42451;BME280;28080;51.138;17.170;2024-02-21T21:51:44;99609.89;;;4.75;93.27
42451;BME280;28080;51.138;17.170;2024-02-21T22:02:10;99597.89;;;4.69;93.36
42451;BME280;28080;51.138;17.170;2024-02-21T22:12:35;99580.03;;;4.62;93.47
42451;BME280;28080;51.138;17.170;2024-02-21T22:23:01;99562.42;;;4.57;93.96
42451;BME280;28080;51.138;17.170;2024-02-21T22:33:26;99544.24;;;4.57;94.38
42451;BME280;28080;51.138;17.170;2024-02-21T22:43:52;99535.48;;;4.66;94.81
42451;BME280;28080;51.138;17.170;2024-02-21T22:54:19;99528.15;;;4.78;94.89
42451;BME280;28080;51.138;17.170;2024-02-21T23:05:05;99515.69;;;4.91;94.73
42451;BME280;28080;51.138;17.170;2024-02-21T23:15:30;99510.48;;;5.05;94.12
42451;BME280;28080;51.138;17.170;2024-02-21T23:25:55;99497.60;;;5.19;93.57
42451;BME280;28080;51.138;17.170;2024-02-21T23:36:20;99479.23;;;5.33;93.12
42451;BME280;28080;51.138;17.170;2024-02-21T23:46:46;99459.59;;;5.47;92.29
42451;BME280;28080;51.138;17.170;2024-02-21T23:57:11;99452.52;;;5.59;91.42
